METAR Data
IDs: Format: Raw Decoded Include TAF

Data at: 1424 UTC 20 Oct 2021

METAR for:KDRT (Del Rio Intl, TX, US)
Text:KDRT 201353Z AUTO 13008KT 10SM OVC014 23/19 A3007 RMK AO2 SLP173 T02280194
Temperature: 22.8°C ( 73°F)
Dewpoint: 19.4°C ( 67°F) [RH = 81%]
Pressure (altimeter):30.07 inches Hg (1018.4 mb) [Sea level pressure: 1017.3 mb]
Winds:from the SE (130 degrees) at 9 MPH (8 knots; 4.1 m/s)
Visibility:10 or more sm (16+ km)
Ceiling:1400 feet AGL
Clouds: overcast cloud deck at 1400 feet AGL
QC Flag:automated observation with no human augmentation